Time;durP1;ratioP1;P1;durP2;ratioP2;P2;SDS_P1;SDS_P2;PMS_P1;PMS_P2;Temp;Humidity;BMP_temperature;BMP_pressure;BME280_temperature;BME280_humidity;BME280_pressure;Samples;Min_cycle;Max_cycle;Signal;HPM_P1;HPM_P2
2022/05/07 00:01:28;;;;;;;2.80;2.60;;;21.10;57.20;;;;;;4986790;28;20058;-16
2022/05/07 00:03:54;;;;;;;2.75;2.65;;;21.20;57.20;;;;;;4991602;28;20039;-16
2022/05/07 00:06:19;;;;;;;2.60;2.40;;;21.20;57.20;;;;;;4975868;28;20062;-17
2022/05/07 00:08:45;;;;;;;2.70;2.60;;;21.20;57.20;;;;;;4990511;28;20072;-16
2022/05/07 00:11:15;;;;;;;2.72;2.55;;;21.20;57.20;;;;;;4992887;28;20061;-16
2022/05/07 00:13:41;;;;;;;2.53;2.42;;;21.10;57.20;;;;;;4957288;28;20047;-16
2022/05/07 00:18:51;;;;;;;2.53;2.42;;;21.10;57.20;;;;;;4995984;28;20130;-17
2022/05/07 00:21:16;;;;;;;2.85;2.75;;;21.10;57.20;;;;;;4976579;28;20142;-16
2022/05/07 00:23:42;;;;;;;2.70;2.50;;;21.20;57.20;;;;;;4976399;28;20546;-16
2022/05/07 00:26:08;;;;;;;2.80;2.60;;;21.10;57.00;;;;;;4974987;28;20511;-17
2022/05/07 00:28:35;;;;;;;2.35;2.00;;;21.10;57.10;;;;;;4991116;28;20416;-17
2022/05/07 00:31:01;;;;;;;2.33;2.22;;;21.20;57.10;;;;;;4979212;28;20049;-16
2022/05/07 00:33:27;;;;;;;2.40;2.30;;;21.10;57.10;;;;;;4972991;28;20141;-16
2022/05/07 00:35:52;;;;;;;2.40;2.30;;;21.10;57.90;;;;;;4969349;28;20074;-17
2022/05/07 00:38:18;;;;;;;2.00;1.90;;;21.10;57.90;;;;;;4964252;28;20054;-16
2022/05/07 00:40:43;;;;;;;2.67;2.10;;;21.10;57.20;;;;;;4997246;28;20512;-16
2022/05/07 00:43:12;;;;;;;2.30;2.20;;;21.10;57.50;;;;;;4974112;28;20049;-17
2022/05/07 00:45:38;;;;;;;2.10;2.00;;;21.10;57.40;;;;;;4980204;28;20185;-16
2022/05/07 00:48:04;;;;;;;2.00;1.90;;;21.10;57.30;;;;;;4975532;28;20110;-16
2022/05/07 00:53:13;;;;;;;2.75;1.92;;;21.10;57.30;;;;;;4968030;28;20065;-16
2022/05/07 00:55:39;;;;;;;2.63;2.42;;;21.10;57.30;;;;;;5000096;28;20078;-17
2022/05/07 00:58:05;;;;;;;2.13;2.03;;;21.20;57.40;;;;;;4974019;28;20101;-17
2022/05/07 01:00:30;;;;;;;2.20;2.10;;;21.20;57.50;;;;;;4977479;28;20415;-17
2022/05/07 01:02:56;;;;;;;1.95;1.85;;;21.10;57.50;;;;;;4973652;28;20093;-16
2022/05/07 01:05:22;;;;;;;2.10;2.00;;;21.10;57.60;;;;;;4973762;28;20134;-16
2022/05/07 01:07:48;;;;;;;1.98;1.88;;;21.10;57.70;;;;;;4992531;28;20143;-17
2022/05/07 01:10:13;;;;;;;2.40;2.30;;;21.10;57.70;;;;;;4963811;28;20100;-17
2022/05/07 01:12:41;;;;;;;1.83;1.73;;;21.10;57.80;;;;;;4984840;28;20050;-16
2022/05/07 01:15:07;;;;;;;2.58;2.40;;;21.20;57.90;;;;;;5009680;28;20043;-17
2022/05/07 01:17:33;;;;;;;1.83;1.73;;;21.10;58.00;;;;;;4979077;28;20054;-16
2022/05/07 01:19:59;;;;;;;2.22;2.13;;;21.10;58.30;;;;;;4979362;28;20566;-17
2022/05/07 01:22:25;;;;;;;1.83;1.73;;;21.10;58.30;;;;;;4977717;28;20467;-16
2022/05/07 01:24:50;;;;;;;2.10;2.00;;;21.10;58.30;;;;;;4997711;28;20078;-17
2022/05/07 01:27:16;;;;;;;2.00;1.90;;;21.20;58.40;;;;;;4965929;28;20046;-17
2022/05/07 01:29:41;;;;;;;2.30;2.20;;;21.10;58.50;;;;;;4977595;28;20044;-16
2022/05/07 01:32:07;;;;;;;4.40;2.28;;;21.10;58.60;;;;;;4970459;28;20416;-16
2022/05/07 01:34:33;;;;;;;2.13;2.03;;;21.10;58.70;;;;;;4961000;28;20047;-16
2022/05/07 01:36:58;;;;;;;2.40;2.28;;;21.10;58.70;;;;;;4978168;28;20078;-16
2022/05/07 01:39:24;;;;;;;2.47;2.28;;;21.10;58.70;;;;;;4997605;28;20459;-16
2022/05/07 01:41:49;;;;;;;3.65;1.90;;;21.10;58.80;;;;;;4978295;28;20062;-16
2022/05/07 01:44:15;;;;;;;2.22;2.13;;;21.10;59.00;;;;;;4971829;28;20519;-17
2022/05/07 01:49:24;;;;;;;2.25;1.80;;;21.10;58.90;;;;;;4975992;28;20412;-16
2022/05/07 01:51:50;;;;;;;2.88;1.88;;;21.10;59.00;;;;;;4963781;28;20043;-16
2022/05/07 01:54:16;;;;;;;2.03;1.92;;;21.10;59.00;;;;;;4977303;28;20081;-16
2022/05/07 01:56:41;;;;;;;2.08;1.98;;;21.10;58.90;;;;;;4982363;28;20464;-16
2022/05/07 01:59:07;;;;;;;1.85;1.75;;;21.10;59.10;;;;;;4979677;28;20043;-16
2022/05/07 02:01:32;;;;;;;1.83;1.73;;;21.10;59.30;;;;;;4970313;28;20055;-16
2022/05/07 02:03:58;;;;;;;1.60;1.50;;;21.10;59.30;;;;;;4984767;28;20112;-17
2022/05/07 02:06:23;;;;;;;2.13;1.92;;;21.10;59.00;;;;;;4976127;28;20039;-16
2022/05/07 02:08:49;;;;;;;2.00;1.90;;;21.10;59.30;;;;;;4972176;28;20066;-16
2022/05/07 02:11:15;;;;;;;1.75;1.70;;;21.10;59.10;;;;;;4967218;28;20049;-16
2022/05/07 02:13:41;;;;;;;1.80;1.70;;;21.00;59.10;;;;;;4997716;28;20066;-16
2022/05/07 02:16:06;;;;;;;1.83;1.73;;;21.00;59.20;;;;;;4993598;28;20042;-16
2022/05/07 02:18:32;;;;;;;1.70;1.60;;;21.00;59.20;;;;;;4976908;28;20436;-16
2022/05/07 02:20:57;;;;;;;1.65;1.60;;;21.10;59.30;;;;;;4970500;28;20047;-16
2022/05/07 02:23:23;;;;;;;2.08;1.63;;;21.00;59.30;;;;;;4963088;28;20479;-16
2022/05/07 02:25:48;;;;;;;2.42;2.10;;;21.00;59.20;;;;;;4983123;28;20054;-16
2022/05/07 02:28:14;;;;;;;1.92;1.83;;;21.00;59.30;;;;;;4961235;28;20035;-16
2022/05/07 02:30:40;;;;;;;2.10;2.00;;;21.00;59.30;;;;;;4993340;28;20408;-16
2022/05/07 02:33:06;;;;;;;1.90;1.80;;;21.00;59.20;;;;;;4973001;28;20054;-16
2022/05/07 02:35:31;;;;;;;1.58;1.58;;;21.00;59.30;;;;;;4966989;28;20035;-16
2022/05/07 02:37:58;;;;;;;1.70;1.60;;;21.00;59.30;;;;;;4976435;28;20073;-16
2022/05/07 02:40:23;;;;;;;1.50;1.50;;;21.00;59.30;;;;;;4967370;28;20053;-16
2022/05/07 02:42:49;;;;;;;1.70;1.60;;;21.00;59.30;;;;;;4970084;28;20047;-16
2022/05/07 02:45:15;;;;;;;1.60;1.50;;;21.00;59.20;;;;;;4957557;28;20049;-16
2022/05/07 02:47:41;;;;;;;1.60;1.60;;;21.00;59.30;;;;;;4965563;28;20053;-16
2022/05/07 02:50:08;;;;;;;2.00;1.90;;;21.00;59.30;;;;;;4975578;28;20043;-16
2022/05/07 02:52:35;;;;;;;1.30;1.20;;;21.00;59.20;;;;;;4975450;28;20141;-15
2022/05/07 02:55:05;;;;;;;1.60;1.50;;;21.00;59.20;;;;;;4963557;28;20043;-16
2022/05/07 02:57:31;;;;;;;1.42;1.38;;;21.00;59.20;;;;;;4961181;28;20073;-16
2022/05/07 02:59:56;;;;;;;1.60;1.50;;;21.00;59.30;;;;;;4965052;28;20047;-16
2022/05/07 03:02:22;;;;;;;1.70;1.60;;;21.00;59.20;;;;;;4971952;28;20051;-16
2022/05/07 03:04:48;;;;;;;1.33;1.33;;;21.00;59.30;;;;;;4970870;28;20046;-16
2022/05/07 03:07:14;;;;;;;1.48;1.38;;;21.00;59.20;;;;;;4974949;28;20070;-16
2022/05/07 03:09:40;;;;;;;2.17;2.00;;;21.00;59.20;;;;;;4984955;28;20097;-16
2022/05/07 03:12:06;;;;;;;1.80;1.70;;;21.00;59.30;;;;;;4976273;28;20142;-16
2022/05/07 03:14:32;;;;;;;1.55;1.45;;;21.00;59.40;;;;;;4978869;28;20054;-16
2022/05/07 03:16:58;;;;;;;1.75;1.75;;;20.90;59.30;;;;;;4963380;28;20052;-16
2022/05/07 03:19:24;;;;;;;1.60;1.50;;;20.90;59.30;;;;;;4962908;28;20045;-16
2022/05/07 03:21:49;;;;;;;1.60;1.50;;;21.00;59.40;;;;;;4975454;28;20058;-16
2022/05/07 03:24:15;;;;;;;1.95;1.85;;;20.90;59.40;;;;;;5000837;28;20050;-16
2022/05/07 03:26:40;;;;;;;1.50;1.40;;;20.90;59.30;;;;;;4963222;28;20057;-16
2022/05/07 03:29:06;;;;;;;1.30;1.30;;;20.90;59.30;;;;;;4972443;28;20519;-16
2022/05/07 03:31:32;;;;;;;1.35;1.35;;;20.90;59.40;;;;;;4971934;28;20071;-16
2022/05/07 03:33:58;;;;;;;1.70;1.70;;;20.90;59.40;;;;;;4994334;28;20053;-16
2022/05/07 03:36:23;;;;;;;1.55;1.55;;;20.90;59.40;;;;;;4970981;28;20058;-16
2022/05/07 03:38:49;;;;;;;1.92;1.83;;;21.00;59.40;;;;;;4974871;28;20102;-16
2022/05/07 03:41:20;;;;;;;1.70;1.65;;;20.90;59.30;;;;;;4974737;28;20034;-16
2022/05/07 03:43:46;;;;;;;1.38;1.38;;;20.90;59.40;;;;;;4973218;28;20197;-16
2022/05/07 03:46:12;;;;;;;2.25;1.35;;;20.90;59.40;;;;;;4968208;28;20157;-16
2022/05/07 03:48:37;;;;;;;1.52;1.42;;;20.90;59.30;;;;;;4967819;28;20061;-16
2022/05/07 03:51:03;;;;;;;1.70;1.60;;;20.90;59.20;;;;;;4971891;28;20043;-17
2022/05/07 03:53:32;;;;;;;1.45;1.40;;;20.90;59.30;;;;;;4975100;28;20055;-17
2022/05/07 03:55:58;;;;;;;2.00;1.90;;;20.90;59.30;;;;;;4973971;28;20137;-16
2022/05/07 03:58:25;;;;;;;1.45;1.35;;;20.90;59.30;;;;;;4964591;28;20840;-16
2022/05/07 04:00:52;;;;;;;1.50;1.50;;;20.90;59.30;;;;;;4975412;28;20138;-17
2022/05/07 04:03:18;;;;;;;1.50;1.40;;;20.90;59.30;;;;;;4971316;28;20046;-16
2022/05/07 04:05:43;;;;;;;1.20;1.20;;;20.90;59.40;;;;;;4954403;28;20058;-16
2022/05/07 04:08:09;;;;;;;1.30;1.30;;;20.90;59.30;;;;;;4971429;28;20117;-18
2022/05/07 04:10:35;;;;;;;1.33;1.33;;;20.90;59.40;;;;;;4969457;28;20043;-19
2022/05/07 04:13:00;;;;;;;1.50;1.40;;;20.90;59.30;;;;;;4971691;28;20050;-17
2022/05/07 04:15:26;;;;;;;1.60;1.60;;;20.90;59.30;;;;;;4972168;28;20035;-16
2022/05/07 04:17:53;;;;;;;2.75;1.55;;;20.90;59.30;;;;;;4974258;28;20515;-16
2022/05/07 04:20:18;;;;;;;1.50;1.50;;;20.90;59.40;;;;;;4967833;28;20066;-16
2022/05/07 04:22:44;;;;;;;1.13;1.13;;;20.90;59.30;;;;;;4967009;28;20051;-16
2022/05/07 04:25:10;;;;;;;2.08;1.67;;;20.90;59.30;;;;;;4974328;28;20043;-16
2022/05/07 04:27:36;;;;;;;1.50;1.50;;;20.90;59.20;;;;;;4971609;28;20057;-16
2022/05/07 04:30:02;;;;;;;1.67;1.58;;;20.90;59.10;;;;;;4964695;28;20051;-16
2022/05/07 04:32:28;;;;;;;1.25;1.25;;;20.80;59.20;;;;;;4970355;28;20410;-16
2022/05/07 04:34:57;;;;;;;1.50;1.50;;;20.80;59.20;;;;;;4968229;28;20060;-16
2022/05/07 04:37:26;;;;;;;1.95;1.90;;;20.90;59.20;;;;;;4970230;28;20745;-17
2022/05/07 04:39:52;;;;;;;1.50;1.50;;;20.90;59.90;;;;;;4997404;28;20055;-17
2022/05/07 04:42:17;;;;;;;1.70;1.60;;;20.90;59.30;;;;;;4969859;28;20046;-16
2022/05/07 04:44:43;;;;;;;1.20;1.10;;;20.90;59.10;;;;;;4967726;28;20054;-16
2022/05/07 04:47:08;;;;;;;1.90;1.80;;;20.90;59.20;;;;;;4969789;28;20061;-17
2022/05/07 04:49:35;;;;;;;1.35;1.30;;;20.90;59.40;;;;;;4973070;28;20081;-17
2022/05/07 04:52:00;;;;;;;1.20;1.20;;;20.90;59.40;;;;;;4985699;28;20146;-17
2022/05/07 04:54:26;;;;;;;1.60;1.50;;;20.90;59.50;;;;;;4973493;28;20038;-17
2022/05/07 04:56:52;;;;;;;1.50;1.40;;;20.90;60.30;;;;;;4971005;28;20055;-17
2022/05/07 04:59:18;;;;;;;1.10;1.10;;;20.90;59.60;;;;;;4973668;28;20839;-17
2022/05/07 05:01:44;;;;;;;1.30;1.30;;;20.90;59.60;;;;;;4965527;28;20571;-17
2022/05/07 05:04:10;;;;;;;1.50;1.50;;;20.90;59.60;;;;;;4969262;28;20385;-16
2022/05/07 05:06:36;;;;;;;1.52;1.52;;;20.90;59.80;;;;;;4998900;28;20047;-16
2022/05/07 05:09:04;;;;;;;1.45;1.35;;;20.90;59.90;;;;;;4973134;28;20094;-16
2022/05/07 05:11:30;;;;;;;1.25;1.25;;;20.90;59.80;;;;;;4969704;28;20047;-16
2022/05/07 05:13:55;;;;;;;1.20;1.20;;;20.90;59.80;;;;;;4971596;28;20045;-16
2022/05/07 05:16:21;;;;;;;1.33;1.30;;;20.90;59.80;;;;;;4975484;28;20110;-16
2022/05/07 05:18:47;;;;;;;1.50;1.40;;;20.90;59.80;;;;;;4974546;28;20129;-17
2022/05/07 05:21:13;;;;;;;1.08;1.08;;;20.80;59.90;;;;;;4974270;28;20046;-17
2022/05/07 05:23:38;;;;;;;1.38;1.35;;;20.80;59.70;;;;;;4971869;28;20059;-17
2022/05/07 05:26:04;;;;;;;1.13;1.13;;;20.80;59.80;;;;;;4977123;28;20039;-18
2022/05/07 05:28:29;;;;;;;1.67;1.58;;;20.90;59.80;;;;;;4968617;28;20039;-17
2022/05/07 05:30:55;;;;;;;1.30;1.30;;;20.80;59.70;;;;;;4969621;28;20162;-17
2022/05/07 05:33:21;;;;;;;1.20;1.20;;;20.80;59.80;;;;;;4969233;28;20035;-17
2022/05/07 05:35:48;;;;;;;1.40;1.40;;;20.80;59.70;;;;;;4955368;28;20051;-17
2022/05/07 05:38:17;;;;;;;1.08;1.08;;;20.80;59.70;;;;;;4973560;28;20126;-17
2022/05/07 05:40:42;;;;;;;2.00;1.42;;;20.80;59.60;;;;;;4964192;28;20051;-17
2022/05/07 05:43:08;;;;;;;1.00;1.00;;;20.80;59.50;;;;;;4623401;28;9999912;-17
2022/05/07 05:45:34;;;;;;;8.02;1.40;;;20.80;59.60;;;;;;4950416;28;20050;-17
2022/05/07 05:48:04;;;;;;;1.27;1.08;;;20.80;59.70;;;;;;4962577;28;20047;-17
2022/05/07 05:50:30;;;;;;;1.30;1.30;;;20.80;59.70;;;;;;4973328;28;20043;-17
2022/05/07 05:52:56;;;;;;;1.30;1.30;;;20.80;59.70;;;;;;4974546;28;20045;-17
2022/05/07 05:55:22;;;;;;;1.30;1.20;;;20.80;59.60;;;;;;4971654;28;20134;-17
2022/05/07 05:57:49;;;;;;;1.02;1.02;;;20.80;59.80;;;;;;4973629;28;20138;-17
2022/05/07 06:00:15;;;;;;;1.02;1.02;;;20.80;59.60;;;;;;4975530;28;20051;-17
2022/05/07 06:02:44;;;;;;;1.10;1.10;;;20.80;59.70;;;;;;4968671;28;20043;-17
2022/05/07 06:05:10;;;;;;;1.00;1.00;;;20.80;59.60;;;;;;4971249;28;20043;-17
2022/05/07 06:07:35;;;;;;;1.75;1.27;;;20.90;59.60;;;;;;4973539;28;20043;-16
2022/05/07 06:10:01;;;;;;;1.27;1.27;;;20.90;59.60;;;;;;4973044;28;20053;-16
2022/05/07 06:12:27;;;;;;;1.42;1.33;;;20.90;59.60;;;;;;4966712;28;20042;-17
2022/05/07 06:14:54;;;;;;;1.50;1.40;;;20.80;59.50;;;;;;4973635;28;20043;-16
2022/05/07 06:17:19;;;;;;;1.20;1.20;;;20.90;59.60;;;;;;4973701;28;20042;-16
2022/05/07 06:19:45;;;;;;;1.10;1.10;;;20.90;59.50;;;;;;4975709;28;20066;-16
2022/05/07 06:22:11;;;;;;;1.35;1.35;;;20.90;59.60;;;;;;4995671;28;20050;-16
2022/05/07 06:27:33;;;;;;;1.08;1.08;;;20.80;59.60;;;;;;4953528;28;20136;-16
2022/05/07 06:30:02;;;;;;;1.10;1.10;;;20.90;59.50;;;;;;4952985;28;21250;-16
2022/05/07 06:32:35;;;;;;;2.08;1.25;;;20.90;59.60;;;;;;4963649;28;20045;-16
2022/05/07 06:35:04;;;;;;;1.23;1.13;;;20.90;59.60;;;;;;4958898;28;20175;-16
2022/05/07 06:37:34;;;;;;;1.30;1.30;;;20.90;59.60;;;;;;4956523;28;20051;-17
2022/05/07 06:40:00;;;;;;;1.17;1.17;;;20.90;59.60;;;;;;4958038;28;20094;-16
2022/05/07 06:42:25;;;;;;;1.58;1.58;;;20.90;59.70;;;;;;4966215;28;20043;-16
2022/05/07 06:44:51;;;;;;;1.05;1.05;;;20.80;59.90;;;;;;4996619;28;20135;-16
2022/05/07 06:47:16;;;;;;;1.10;1.10;;;20.90;59.60;;;;;;4957783;28;20045;-16
2022/05/07 06:49:43;;;;;;;1.50;1.10;;;20.80;59.60;;;;;;4967600;28;20119;-16
2022/05/07 06:52:09;;;;;;;1.20;1.20;;;20.80;59.80;;;;;;4963693;28;20046;-16
2022/05/07 06:54:34;;;;;;;3.17;1.38;;;20.80;59.80;;;;;;4972386;28;20042;-16
2022/05/07 06:57:00;;;;;;;2.25;0.95;;;20.80;60.00;;;;;;4967062;28;20094;-16
2022/05/07 06:59:26;;;;;;;2.53;1.05;;;20.80;59.80;;;;;;4968938;28;20051;-16
2022/05/07 07:01:52;;;;;;;2.20;0.93;;;20.80;60.00;;;;;;4967192;28;20057;-16
2022/05/07 07:04:18;;;;;;;1.48;1.15;;;20.80;60.10;;;;;;4971884;28;20134;-16
2022/05/07 07:06:44;;;;;;;1.10;1.10;;;20.80;60.40;;;;;;4970025;28;20141;-16
2022/05/07 07:09:09;;;;;;;0.93;0.93;;;20.80;60.40;;;;;;4971828;28;20439;-16
2022/05/07 07:11:35;;;;;;;0.80;0.80;;;20.80;60.30;;;;;;4994919;28;20035;-16
2022/05/07 07:14:02;;;;;;;2.33;1.10;;;20.80;60.10;;;;;;4970826;28;20098;-16
2022/05/07 07:16:29;;;;;;;0.90;0.90;;;20.70;60.10;;;;;;4972897;28;20053;-16
2022/05/07 07:18:55;;;;;;;1.10;1.05;;;20.80;60.00;;;;;;4972999;28;20087;-16
2022/05/07 07:21:20;;;;;;;2.53;1.10;;;20.70;59.90;;;;;;4971411;28;20139;-16
2022/05/07 07:23:46;;;;;;;1.20;0.90;;;20.70;59.80;;;;;;4970513;28;20106;-16
2022/05/07 07:26:12;;;;;;;2.83;1.20;;;20.70;59.50;;;;;;4975289;28;20061;-16
2022/05/07 07:28:37;;;;;;;0.93;0.88;;;20.70;59.50;;;;;;4974601;28;20125;-16
2022/05/07 07:31:03;;;;;;;1.17;1.13;;;20.60;59.20;;;;;;5002437;28;20463;-16
2022/05/07 07:33:29;;;;;;;1.77;1.10;;;20.60;59.20;;;;;;4974125;28;20042;-16
2022/05/07 07:35:55;;;;;;;1.67;1.02;;;20.60;59.00;;;;;;4977866;28;20385;-16
2022/05/07 07:38:21;;;;;;;0.75;0.73;;;20.70;58.90;;;;;;4973392;28;20494;-16
2022/05/07 07:40:50;;;;;;;0.70;0.70;;;20.60;58.70;;;;;;4975134;28;20345;-16
2022/05/07 07:43:17;;;;;;;0.80;0.73;;;20.60;58.60;;;;;;4974367;28;20063;-16
2022/05/07 07:48:26;;;;;;;;;;;20.60;58.70;;;;;;4971816;28;20305;-16
2022/05/07 07:50:53;;;;;;;2.05;0.80;;;20.60;58.40;;;;;;4975323;28;20180;-17
2022/05/07 07:53:22;;;;;;;0.68;0.68;;;20.70;58.30;;;;;;4972413;28;20050;-16
2022/05/07 07:55:48;;;;;;;1.02;0.93;;;20.60;58.40;;;;;;4972687;28;20058;-16
2022/05/07 07:58:13;;;;;;;1.15;0.80;;;20.70;58.30;;;;;;4997820;28;20054;-17
2022/05/07 08:00:41;;;;;;;0.85;0.60;;;20.60;58.20;;;;;;4973075;28;20126;-16
2022/05/07 08:03:17;;;;;;;0.90;0.90;;;20.70;58.10;;;;;;4973898;28;20043;-16
2022/05/07 08:05:44;;;;;;;1.33;0.85;;;20.70;58.10;;;;;;4968316;28;20166;-16
2022/05/07 08:13:39;;;;;;;0.90;0.90;;;20.60;58.30;;;;;;4972895;28;20450;-17
2022/05/07 08:16:06;;;;;;;0.85;0.85;;;20.60;58.20;;;;;;4973908;28;20397;-17
2022/05/07 08:18:31;;;;;;;0.82;0.80;;;20.60;58.30;;;;;;4972002;28;20463;-17
2022/05/07 08:20:57;;;;;;;0.80;0.77;;;20.60;58.30;;;;;;4971881;28;20050;-17
2022/05/07 08:23:23;;;;;;;0.60;0.60;;;20.60;58.30;;;;;;4974130;28;20047;-17
2022/05/07 08:25:49;;;;;;;0.63;0.60;;;20.60;58.10;;;;;;4970812;28;20043;-17
2022/05/07 08:28:15;;;;;;;1.02;0.80;;;20.60;58.10;;;;;;4982244;28;20043;-17
2022/05/07 08:30:41;;;;;;;0.63;0.63;;;20.60;58.20;;;;;;4970021;28;20071;-17
2022/05/07 08:33:07;;;;;;;1.20;0.65;;;20.60;58.10;;;;;;4969989;28;20038;-17
2022/05/07 08:35:32;;;;;;;1.08;1.00;;;20.60;58.10;;;;;;4970766;28;20050;-17
2022/05/07 08:37:58;;;;;;;1.30;0.60;;;20.60;58.10;;;;;;4972068;28;20047;-17
2022/05/07 08:40:24;;;;;;;0.68;0.68;;;20.60;58.00;;;;;;4972250;28;20823;-17
2022/05/07 08:42:50;;;;;;;0.88;0.88;;;20.60;58.00;;;;;;4972143;28;20047;-17
2022/05/07 08:45:16;;;;;;;0.50;0.50;;;20.60;57.90;;;;;;4974238;28;20054;-17
2022/05/07 08:47:42;;;;;;;1.60;0.80;;;20.60;57.80;;;;;;4972105;28;20042;-17
2022/05/07 08:50:09;;;;;;;1.27;0.70;;;20.60;57.80;;;;;;4969016;28;20047;-17
2022/05/07 08:52:38;;;;;;;0.80;0.80;;;20.60;57.90;;;;;;4971941;28;20038;-17
2022/05/07 08:55:04;;;;;;;0.65;0.65;;;20.60;57.90;;;;;;4977708;28;20042;-17
2022/05/07 08:57:30;;;;;;;0.98;0.95;;;20.70;57.80;;;;;;4979049;28;20051;-17
2022/05/07 08:59:55;;;;;;;1.05;0.93;;;20.60;58.00;;;;;;4973806;28;20047;-18
2022/05/07 09:02:21;;;;;;;0.65;0.65;;;20.60;58.30;;;;;;4971667;28;20082;-17
2022/05/07 09:04:56;;;;;;;0.82;0.68;;;20.60;58.30;;;;;;4975317;28;20554;-17
2022/05/07 09:07:22;;;;;;;0.80;0.80;;;20.60;58.20;;;;;;4964049;28;20570;-17
2022/05/07 09:09:48;;;;;;;1.10;0.80;;;20.60;58.40;;;;;;4962320;28;20657;-17
2022/05/07 09:12:25;;;;;;;0.95;0.68;;;20.70;58.30;;;;;;4961414;28;20074;-17
2022/05/07 09:14:50;;;;;;;0.60;0.60;;;20.60;58.70;;;;;;4962518;28;20059;-17
2022/05/07 09:17:19;;;;;;;3.67;0.80;;;20.60;58.40;;;;;;4963005;28;20074;-17
2022/05/07 09:19:44;;;;;;;0.75;0.75;;;20.70;58.90;;;;;;4962103;28;20063;-18
2022/05/07 09:22:11;;;;;;;0.85;0.70;;;20.70;58.80;;;;;;4960689;28;20100;-17
2022/05/07 09:24:40;;;;;;;0.82;0.82;;;20.70;58.90;;;;;;4960325;28;20105;-16
2022/05/07 09:27:05;;;;;;;0.68;0.68;;;20.90;58.80;;;;;;4962039;28;20046;-17
2022/05/07 09:29:31;;;;;;;1.52;0.90;;;20.80;58.90;;;;;;4963155;28;20104;-17
2022/05/07 09:32:10;;;;;;;1.48;0.80;;;20.90;58.70;;;;;;4962497;28;20050;-17
2022/05/07 09:37:39;;;;;;;0.68;0.60;;;20.80;59.10;;;;;;4954727;28;20516;-17
2022/05/07 09:40:06;;;;;;;0.95;0.95;;;20.70;59.30;;;;;;4961306;28;20086;-17
2022/05/07 09:42:33;;;;;;;0.47;0.47;;;20.70;59.00;;;;;;4963060;28;20543;-17
2022/05/07 09:44:58;;;;;;;2.40;1.10;;;20.80;59.20;;;;;;4962646;28;20129;-18
2022/05/07 09:47:24;;;;;;;0.70;0.70;;;20.70;59.10;;;;;;4944491;28;20096;-17
2022/05/07 09:52:35;;;;;;;0.68;0.68;;;21.00;58.90;;;;;;4961590;28;20440;-17
2022/05/07 09:57:44;;;;;;;2.78;0.80;;;21.00;59.10;;;;;;4958901;28;20505;-18
2022/05/07 10:00:13;;;;;;;0.95;0.90;;;21.00;59.20;;;;;;4961931;28;20221;-17
2022/05/07 10:03:18;;;;;;;0.60;0.60;;;21.00;59.30;;;;;;4961437;28;20104;-17
2022/05/07 10:06:05;;;;;;;0.57;0.57;;;21.00;59.10;;;;;;4956960;28;20078;-18
2022/05/07 10:08:56;;;;;;;1.23;1.10;;;21.10;59.50;;;;;;4961598;28;20050;-19
2022/05/07 10:11:21;;;;;;;4.32;1.25;;;21.10;59.50;;;;;;4962089;28;20053;-17
2022/05/07 10:13:58;;;;;;;1.02;1.00;;;21.10;60.30;;;;;;4959285;28;20050;-18
2022/05/07 10:16:27;;;;;;;1.02;0.80;;;21.10;59.90;;;;;;4615142;28;10000305;-18
2022/05/07 10:18:55;;;;;;;4.13;0.75;;;21.10;59.90;;;;;;4957833;28;20431;-18
2022/05/07 10:21:21;;;;;;;2.45;0.90;;;21.20;58.70;;;;;;4957754;28;20050;-19
2022/05/07 10:23:53;;;;;;;1.08;0.70;;;21.20;59.80;;;;;;4959580;28;20058;-18
2022/05/07 10:26:20;;;;;;;1.13;1.02;;;21.20;59.60;;;;;;4957983;28;20480;-19
2022/05/07 10:28:46;;;;;;;1.00;0.80;;;21.20;59.00;;;;;;4959017;28;20046;-19
2022/05/07 10:31:22;;;;;;;0.82;0.60;;;21.20;58.80;;;;;;4958790;28;20077;-18
2022/05/07 10:33:48;;;;;;;0.80;0.80;;;21.20;58.80;;;;;;4959165;28;20050;-19
2022/05/07 10:36:14;;;;;;;0.90;0.90;;;21.20;58.80;;;;;;4957607;28;20051;-18
2022/05/07 10:38:42;;;;;;;0.73;0.70;;;21.20;58.40;;;;;;4959672;28;20061;-18
2022/05/07 10:41:20;;;;;;;2.75;0.90;;;21.20;58.60;;;;;;4958220;28;20062;-18
2022/05/07 10:43:55;;;;;;;1.33;0.57;;;21.20;58.10;;;;;;4953479;28;20059;-17
2022/05/07 10:46:21;;;;;;;1.90;0.77;;;21.20;58.00;;;;;;4957694;28;20449;-17
2022/05/07 10:48:56;;;;;;;0.65;0.50;;;21.10;58.00;;;;;;4957354;28;20605;-17
2022/05/07 10:51:26;;;;;;;0.70;0.57;;;21.00;57.80;;;;;;4958145;28;20046;-17
2022/05/07 10:53:52;;;;;;;1.52;0.60;;;21.10;57.90;;;;;;4958798;28;20132;-17
2022/05/07 10:56:19;;;;;;;0.60;0.60;;;21.10;57.50;;;;;;4957318;28;21149;-17
2022/05/07 10:58:49;;;;;;;0.73;0.52;;;21.20;57.40;;;;;;4958643;28;20455;-19
2022/05/07 11:01:16;;;;;;;1.13;0.68;;;21.20;57.50;;;;;;4959460;28;20169;-17
2022/05/07 11:03:41;;;;;;;2.47;1.00;;;21.30;57.20;;;;;;4959178;28;20081;-17
2022/05/07 11:06:07;;;;;;;0.60;0.60;;;21.30;57.10;;;;;;4955955;28;20055;-18
2022/05/07 11:08:35;;;;;;;1.45;0.55;;;21.30;56.90;;;;;;4956858;28;20086;-18
2022/05/07 11:11:10;;;;;;;1.10;0.52;;;21.40;56.60;;;;;;4957732;28;20077;-18
2022/05/07 11:13:45;;;;;;;1.17;0.82;;;21.40;56.60;;;;;;4959532;28;20078;-18
2022/05/07 11:16:11;;;;;;;0.90;0.90;;;21.50;56.60;;;;;;4955483;28;20101;-18
2022/05/07 11:18:40;;;;;;;0.75;0.63;;;21.50;56.60;;;;;;4958699;28;20114;-17
2022/05/07 11:21:05;;;;;;;0.60;0.60;;;21.50;56.50;;;;;;4958184;28;20075;-17
2022/05/07 11:23:36;;;;;;;0.50;0.50;;;21.50;56.60;;;;;;4956988;28;20118;-17
2022/05/07 11:26:12;;;;;;;0.40;0.40;;;21.50;56.50;;;;;;4955976;28;20054;-17
2022/05/07 11:28:39;;;;;;;0.60;0.50;;;21.50;56.60;;;;;;4957401;28;20055;-17
2022/05/07 11:31:05;;;;;;;1.50;0.57;;;21.50;56.50;;;;;;4955816;28;20128;-18
2022/05/07 11:33:30;;;;;;;0.50;0.47;;;21.50;56.60;;;;;;4957767;28;20047;-17
2022/05/07 11:36:14;;;;;;;1.77;0.50;;;21.50;56.60;;;;;;4956570;28;20043;-17
2022/05/07 11:38:39;;;;;;;0.40;0.40;;;21.60;56.60;;;;;;4957960;28;20138;-18
2022/05/07 11:41:09;;;;;;;0.40;0.40;;;21.50;56.40;;;;;;4955278;28;20403;-18
2022/05/07 11:46:19;;;;;;;0.50;0.38;;;21.50;56.80;;;;;;4948051;28;20065;-18
2022/05/07 11:48:45;;;;;;;2.70;0.50;;;21.60;57.00;;;;;;4959596;28;20448;-17
2022/05/07 11:51:10;;;;;;;0.65;0.32;;;21.60;56.70;;;;;;4958569;28;20121;-17
2022/05/07 11:53:36;;;;;;;2.17;0.55;;;21.60;56.70;;;;;;4962154;28;20046;-17
2022/05/07 11:56:09;;;;;;;0.40;0.40;;;21.70;56.90;;;;;;4973205;28;20051;-18
2022/05/07 11:58:45;;;;;;;0.50;0.50;;;21.70;56.50;;;;;;4974631;28;20046;-19
2022/05/07 12:01:24;;;;;;;0.50;0.50;;;21.80;56.50;;;;;;4973979;28;20063;-17
2022/05/07 12:03:50;;;;;;;2.50;0.57;;;21.90;56.60;;;;;;4966527;28;20124;-19
2022/05/07 12:06:30;;;;;;;0.40;0.40;;;21.70;56.80;;;;;;4972993;28;20047;-18
2022/05/07 12:08:56;;;;;;;0.52;0.50;;;21.80;56.80;;;;;;4974460;28;20043;-18
2022/05/07 12:11:22;;;;;;;0.52;0.50;;;21.70;56.60;;;;;;4974765;28;20035;-18
2022/05/07 12:13:47;;;;;;;0.70;0.70;;;21.70;56.70;;;;;;4970266;28;20081;-18
2022/05/07 12:18:57;;;;;;;0.38;0.32;;;21.80;57.50;;;;;;4968760;28;20516;-18
2022/05/07 12:29:52;;;;;;;1.02;0.55;;;21.90;56.60;;;;;;4978325;28;20102;-18
2022/05/07 12:32:18;;;;;;;0.40;0.40;;;21.80;56.80;;;;;;4979031;28;20125;-19
2022/05/07 12:34:44;;;;;;;0.45;0.45;;;21.80;56.90;;;;;;4978433;28;20046;-18
2022/05/07 12:37:09;;;;;;;0.35;0.30;;;21.80;57.00;;;;;;4977597;28;20049;-18
2022/05/07 12:39:36;;;;;;;1.95;0.50;;;21.80;57.00;;;;;;5001376;28;20071;-18
2022/05/07 12:42:05;;;;;;;0.40;0.40;;;21.80;56.90;;;;;;4977184;28;20404;-18
2022/05/07 12:44:31;;;;;;;0.60;0.60;;;21.80;57.10;;;;;;4972251;28;20534;-18
2022/05/07 12:46:56;;;;;;;0.98;0.52;;;21.80;57.00;;;;;;4976779;28;20059;-19
2022/05/07 12:49:22;;;;;;;0.50;0.50;;;21.90;57.00;;;;;;4974787;28;20074;-18
2022/05/07 12:51:49;;;;;;;0.45;0.40;;;21.80;57.10;;;;;;4978682;28;20101;-18
2022/05/07 12:54:14;;;;;;;0.50;0.50;;;21.80;57.10;;;;;;4977413;28;20067;-18
2022/05/07 12:56:41;;;;;;;1.52;0.43;;;21.80;57.70;;;;;;5005087;28;20098;-18
2022/05/07 12:59:07;;;;;;;0.65;0.63;;;21.90;56.90;;;;;;4995474;28;20047;-18
2022/05/07 13:01:32;;;;;;;0.50;0.50;;;21.90;56.70;;;;;;4974877;28;20067;-18
2022/05/07 13:03:58;;;;;;;1.02;0.47;;;22.00;56.70;;;;;;4969396;28;20105;-17
2022/05/07 13:06:23;;;;;;;0.50;0.50;;;22.00;56.60;;;;;;4972640;28;20126;-18
2022/05/07 13:08:49;;;;;;;0.75;0.73;;;22.00;56.50;;;;;;4974858;28;20579;-18
2022/05/07 13:11:14;;;;;;;0.73;0.70;;;22.10;56.20;;;;;;4974397;28;20923;-19
2022/05/07 13:13:40;;;;;;;0.50;0.50;;;22.10;56.30;;;;;;4976391;28;20093;-18
2022/05/07 13:16:07;;;;;;;0.63;0.50;;;22.10;56.30;;;;;;4975922;28;20798;-17
2022/05/07 13:18:34;;;;;;;0.57;0.57;;;22.10;56.10;;;;;;4977419;28;20126;-19
2022/05/07 13:21:00;;;;;;;1.15;0.60;;;22.10;55.90;;;;;;4969737;28;20046;-17
2022/05/07 13:23:26;;;;;;;0.60;0.50;;;22.00;56.20;;;;;;4978264;28;20057;-17
2022/05/07 13:25:51;;;;;;;0.88;0.88;;;22.10;56.10;;;;;;4977319;28;20050;-16
2022/05/07 13:28:17;;;;;;;0.70;0.40;;;22.00;56.30;;;;;;4977449;28;20051;-17